logo
Search for airport 
image banner adimage banner adimage banner ad
image banner ad

UG23 - Gudauta / Bombora Airbase UG0U

Located in Gudauta, Georgia

ICAO - UG0U, IATA -

Data provided by Airmate  

General information

Coordinates: N43°6'14" E40°34'45"
Elevation is 79 feet MSL.
Magnetic variation is 7° East
View others Airports in Abkhazia

Operational data

Special qualification required
Current time UTC:
Current local time:
Weather at : URSS - Sochi ( 64 km )
TAF: TAF URSS 162255Z 1700/1724 04003G08MPS 9999 SCT030 BKN100 BECMG 1705/1707 28006G12MPS FEW040 BECMG 1717/1719 05003G08MPS SCT100
View NOTAMs / SUP AIP / TFR affecting this airport [VIEW]
Communications frequencies: [VIEW]

Runways:

Airport contact information

Address: Gudauta Georgia

Satellite view of UG23